Time;durP1;ratioP1;P1;durP2;ratioP2;P2;SDS_P1;SDS_P2;PMS_P1;PMS_P2;Temp;Humidity;BMP_temperature;BMP_pressure;BME280_temperature;BME280_humidity;BME280_pressure;Samples;Min_cycle;Max_cycle;Signal;HPM_P1;HPM_P2
2021/11/19 00:00:43;;;;;;;26.48;11.65;;;8.70;90.70;;;;;;5031216;28;20024;-60
2021/11/19 00:03:09;;;;;;;25.98;12.00;;;8.70;90.80;;;;;;5029056;28;20055;-60
2021/11/19 00:05:34;;;;;;;21.42;11.68;;;8.70;90.80;;;;;;5062746;28;20044;-59
2021/11/19 00:08:00;;;;;;;27.20;12.60;;;8.70;90.80;;;;;;5029559;28;20037;-59
2021/11/19 00:10:26;;;;;;;25.17;12.43;;;8.60;90.80;;;;;;5063668;28;20460;-60
2021/11/19 00:12:51;;;;;;;24.33;12.45;;;8.70;90.70;;;;;;5047075;28;20166;-59
2021/11/19 00:15:17;;;;;;;21.65;11.82;;;8.60;90.70;;;;;;5013295;28;20112;-60
2021/11/19 00:17:43;;;;;;;26.52;12.70;;;8.60;90.70;;;;;;5045256;28;20044;-60
2021/11/19 00:20:11;;;;;;;25.23;12.77;;;8.60;90.70;;;;;;5045224;28;20033;-60
2021/11/19 00:22:37;;;;;;;20.23;11.85;;;8.50;90.70;;;;;;5045386;28;20507;-60
2021/11/19 00:25:04;;;;;;;20.15;11.43;;;8.50;90.70;;;;;;5045797;28;20064;-60
2021/11/19 00:27:29;;;;;;;24.67;12.60;;;8.50;90.80;;;;;;5028984;28;20033;-60
2021/11/19 00:29:55;;;;;;;17.77;11.73;;;8.40;90.90;;;;;;5061069;28;20142;-59
2021/11/19 00:32:20;;;;;;;19.17;11.32;;;8.40;90.80;;;;;;5027680;28;20031;-60
2021/11/19 00:34:48;;;;;;;15.82;10.75;;;8.40;90.80;;;;;;5042402;28;20045;-60
2021/11/19 00:37:14;;;;;;;25.50;11.25;;;8.40;90.80;;;;;;5046151;28;20029;-59
2021/11/19 00:39:39;;;;;;;22.08;11.07;;;8.40;90.80;;;;;;5027745;28;20036;-59
2021/11/19 00:42:06;;;;;;;16.45;11.18;;;8.40;90.70;;;;;;5044339;28;20021;-60
2021/11/19 00:44:32;;;;;;;19.92;11.00;;;8.40;90.90;;;;;;5045733;28;20013;-61
2021/11/19 00:46:57;;;;;;;19.40;11.43;;;8.30;90.80;;;;;;5027256;28;20048;-59
2021/11/19 00:49:26;;;;;;;17.75;10.85;;;8.30;90.80;;;;;;5044106;28;20044;-60
2021/11/19 00:51:54;;;;;;;19.08;10.68;;;8.30;90.90;;;;;;5017044;28;20020;-60
2021/11/19 00:54:20;;;;;;;23.52;11.48;;;8.30;90.80;;;;;;5044227;28;20407;-60
2021/11/19 00:56:47;;;;;;;21.17;11.02;;;8.30;90.90;;;;;;5028030;28;20035;-60
2021/11/19 00:59:14;;;;;;;15.85;10.57;;;8.30;90.90;;;;;;5029076;28;20086;-60
2021/11/19 01:01:52;;;;;;;19.13;11.48;;;8.30;91.00;;;;;;5029051;28;20121;-60
2021/11/19 01:04:18;;;;;;;18.98;12.18;;;8.20;91.00;;;;;;5061869;28;20056;-60
2021/11/19 01:06:44;;;;;;;21.95;12.70;;;8.20;90.90;;;;;;5046281;28;20075;-60
2021/11/19 01:09:12;;;;;;;18.50;11.50;;;8.20;90.90;;;;;;5012885;28;20085;-61
2021/11/19 01:11:38;;;;;;;25.33;11.40;;;8.20;90.90;;;;;;5044126;28;20024;-60
2021/11/19 01:14:05;;;;;;;20.13;11.35;;;8.10;91.00;;;;;;5027539;28;20071;-62
2021/11/19 01:16:37;;;;;;;18.70;11.95;;;8.10;91.00;;;;;;5028946;28;20117;-60
2021/11/19 01:19:19;;;;;;;17.25;12.02;;;8.10;91.00;;;;;;5029042;28;20491;-59
2021/11/19 01:21:54;;;;;;;19.40;11.50;;;8.10;91.00;;;;;;5011204;28;20083;-60
2021/11/19 01:24:20;;;;;;;16.73;10.60;;;8.10;91.00;;;;;;5011821;28;20562;-59
2021/11/19 01:26:47;;;;;;;15.10;10.95;;;8.00;91.00;;;;;;5028003;28;20071;-59
2021/11/19 01:29:14;;;;;;;15.60;10.85;;;8.00;91.10;;;;;;5063004;28;20042;-64
2021/11/19 01:31:45;;;;;;;18.33;11.85;;;8.00;91.00;;;;;;5049476;28;20170;-59
2021/11/19 01:34:11;;;;;;;19.90;13.00;;;8.00;91.00;;;;;;5056031;28;20017;-60
2021/11/19 01:36:37;;;;;;;19.20;13.20;;;8.00;91.00;;;;;;5045912;28;20097;-60
2021/11/19 01:39:04;;;;;;;34.20;16.63;;;8.00;91.00;;;;;;5027544;28;20506;-60
2021/11/19 01:41:39;;;;;;;31.23;19.05;;;7.90;91.00;;;;;;5028423;28;20052;-61
2021/11/19 01:44:32;;;;;;;28.65;18.40;;;7.90;91.00;;;;;;5029855;28;20032;-60
2021/11/19 01:46:58;;;;;;;30.38;19.75;;;7.90;91.10;;;;;;5059423;28;20356;-59
2021/11/19 01:49:25;;;;;;;29.85;19.20;;;7.90;91.00;;;;;;5011383;28;20031;-60
2021/11/19 01:51:58;;;;;;;29.48;19.48;;;7.80;91.00;;;;;;5044302;28;20033;-60
2021/11/19 01:54:33;;;;;;;30.30;20.10;;;7.80;91.00;;;;;;5043068;28;20032;-60
2021/11/19 01:57:01;;;;;;;27.52;19.80;;;7.80;91.00;;;;;;5044524;28;20033;-60
2021/11/19 01:59:35;;;;;;;30.77;18.50;;;7.80;91.10;;;;;;5044132;28;20609;-60
2021/11/19 02:02:07;;;;;;;28.85;18.30;;;7.70;91.10;;;;;;5044694;28;20127;-60
2021/11/19 02:04:39;;;;;;;25.75;18.83;;;7.70;91.10;;;;;;5057627;28;20049;-60
2021/11/19 02:07:09;;;;;;;31.58;19.38;;;7.70;91.10;;;;;;5040640;28;20045;-60
2021/11/19 02:09:54;;;;;;;26.13;19.30;;;7.70;91.10;;;;;;5054814;28;20037;-59
2021/11/19 02:12:57;;;;;;;26.27;18.85;;;7.70;91.10;;;;;;5023245;28;20033;-60
2021/11/19 02:15:28;;;;;;;26.20;18.52;;;7.70;91.00;;;;;;5020349;28;20021;-59
2021/11/19 02:17:55;;;;;;;25.50;18.63;;;7.70;90.90;;;;;;5038065;28;20104;-60
2021/11/19 02:20:25;;;;;;;25.25;17.92;;;7.70;91.00;;;;;;5022963;28;20025;-60
2021/11/19 02:22:56;;;;;;;24.48;17.25;;;7.70;91.00;;;;;;5006590;28;20025;-60
2021/11/19 02:25:26;;;;;;;23.38;16.88;;;7.60;91.00;;;;;;5038760;28;20026;-59
2021/11/19 02:27:58;;;;;;;24.02;16.30;;;7.60;91.00;;;;;;5021760;28;20018;-60
2021/11/19 02:30:33;;;;;;;23.42;17.08;;;7.60;91.10;;;;;;5011969;28;20439;-60
2021/11/19 02:33:06;;;;;;;25.27;17.45;;;7.60;91.00;;;;;;5022583;28;20048;-61
2021/11/19 02:35:37;;;;;;;21.15;15.73;;;7.60;91.10;;;;;;5024818;28;20080;-61
2021/11/19 02:38:06;;;;;;;22.60;16.25;;;7.50;91.10;;;;;;5007384;28;20354;-60
2021/11/19 02:40:33;;;;;;;22.85;17.35;;;7.50;91.10;;;;;;5023637;28;20448;-60
2021/11/19 02:43:05;;;;;;;23.73;17.55;;;7.50;91.00;;;;;;5006978;28;20037;-60
2021/11/19 02:45:51;;;;;;;23.33;17.25;;;7.50;91.10;;;;;;5022229;28;20726;-61
2021/11/19 02:48:19;;;;;;;25.63;16.02;;;7.40;91.10;;;;;;5033697;28;20030;-60
2021/11/19 02:50:45;;;;;;;28.95;16.15;;;7.40;91.00;;;;;;5024065;28;20025;-60
2021/11/19 02:53:11;;;;;;;45.75;17.77;;;7.40;91.00;;;;;;5038273;28;20040;-61
2021/11/19 02:55:40;;;;;;;47.95;19.20;;;7.40;91.10;;;;;;5013681;28;20031;-61
2021/11/19 02:58:09;;;;;;;120.10;21.77;;;7.30;91.10;;;;;;5037710;28;20092;-60
2021/11/19 03:01:09;;;;;;;192.77;28.48;;;7.40;91.20;;;;;;5007300;28;20578;-60
2021/11/19 03:03:36;;;;;;;168.40;24.67;;;7.30;91.20;;;;;;5043147;28;20055;-61
2021/11/19 03:06:02;;;;;;;158.75;25.70;;;7.30;91.20;;;;;;5046660;28;20025;-60
2021/11/19 03:08:28;;;;;;;180.73;25.90;;;7.30;91.20;;;;;;5045488;28;20395;-60
2021/11/19 03:10:57;;;;;;;149.80;28.60;;;7.30;91.20;;;;;;5063399;28;20045;-60
2021/11/19 03:13:25;;;;;;;162.93;26.95;;;7.30;91.20;;;;;;5030534;28;20088;-60
2021/11/19 03:15:50;;;;;;;155.80;26.05;;;7.30;91.30;;;;;;5064321;28;20040;-60
2021/11/19 03:18:17;;;;;;;147.68;26.25;;;7.20;91.20;;;;;;5011919;28;20032;-60
2021/11/19 03:20:44;;;;;;;128.23;24.08;;;7.30;91.20;;;;;;5046233;28;20119;-61
2021/11/19 03:23:10;;;;;;;131.98;24.25;;;7.20;91.30;;;;;;5030260;28;20633;-60
2021/11/19 03:25:37;;;;;;;454.48;51.40;;;7.20;91.40;;;;;;5012938;28;20857;-60
2021/11/19 03:28:07;;;;;;;188.50;26.92;;;7.10;91.30;;;;;;5047553;28;20029;-60
2021/11/19 03:30:33;;;;;;;163.30;26.23;;;7.20;91.40;;;;;;5031759;28;20032;-60
2021/11/19 03:32:59;;;;;;;175.18;25.35;;;7.20;91.40;;;;;;5065256;28;20021;-60
2021/11/19 03:35:25;;;;;;;157.45;24.90;;;7.10;91.40;;;;;;5013958;28;20028;-60
2021/11/19 03:37:52;;;;;;;129.40;21.80;;;7.20;91.40;;;;;;5047314;28;20093;-61
2021/11/19 03:40:20;;;;;;;117.15;22.27;;;7.20;91.40;;;;;;5030727;28;20319;-60
2021/11/19 03:42:46;;;;;;;108.57;21.70;;;7.20;91.40;;;;;;5030383;28;20052;-60
2021/11/19 03:45:13;;;;;;;125.28;22.40;;;7.10;91.40;;;;;;5045864;28;20491;-61
2021/11/19 03:47:41;;;;;;;105.18;20.15;;;7.10;91.50;;;;;;5046768;28;20127;-60
2021/11/19 03:50:33;;;;;;;81.97;20.15;;;7.10;91.60;;;;;;5013716;28;20083;-61
2021/11/19 03:52:58;;;;;;;100.05;20.73;;;7.10;91.60;;;;;;5039549;28;20029;-60
2021/11/19 03:55:34;;;;;;;107.13;18.77;;;7.10;91.60;;;;;;5044714;28;20094;-61
2021/11/19 03:57:59;;;;;;;79.75;18.60;;;7.10;91.60;;;;;;5029632;28;20021;-60
2021/11/19 04:00:31;;;;;;;89.53;18.85;;;7.10;91.70;;;;;;5063131;28;20036;-60
2021/11/19 04:02:56;;;;;;;73.97;18.75;;;7.10;91.70;;;;;;5045205;28;20032;-60
2021/11/19 04:05:22;;;;;;;96.13;18.75;;;7.00;91.70;;;;;;5064245;28;20357;-60
2021/11/19 04:07:48;;;;;;;78.32;18.58;;;7.10;91.70;;;;;;5014812;28;20105;-60
2021/11/19 04:10:13;;;;;;;68.88;19.15;;;7.00;91.70;;;;;;5044769;28;20033;-61
2021/11/19 04:12:39;;;;;;;70.82;17.05;;;7.10;91.70;;;;;;5028698;28;20111;-60
2021/11/19 04:15:07;;;;;;;73.63;16.60;;;7.00;91.70;;;;;;5044747;28;20089;-60
2021/11/19 04:17:32;;;;;;;61.92;17.13;;;7.10;91.70;;;;;;5013381;28;20132;-61
2021/11/19 04:19:58;;;;;;;70.43;17.85;;;7.10;91.70;;;;;;5030305;28;20139;-61
2021/11/19 04:22:23;;;;;;;57.05;18.60;;;7.00;91.70;;;;;;5047233;28;20033;-61
2021/11/19 04:24:59;;;;;;;70.88;18.85;;;7.00;92.00;;;;;;5062740;28;20114;-60
2021/11/19 04:27:24;;;;;;;47.40;17.30;;;7.00;92.10;;;;;;5043781;28;20040;-61
2021/11/19 04:29:50;;;;;;;49.17;16.65;;;7.00;92.20;;;;;;5027774;28;20041;-60
2021/11/19 04:32:21;;;;;;;50.22;17.30;;;7.00;92.30;;;;;;5044981;28;20468;-61
2021/11/19 04:34:47;;;;;;;62.65;16.90;;;6.90;92.30;;;;;;5047878;28;20052;-60
2021/11/19 04:37:12;;;;;;;55.25;17.15;;;7.00;92.30;;;;;;5027707;28;20055;-60
2021/11/19 04:39:38;;;;;;;50.53;16.60;;;6.90;92.30;;;;;;5063586;28;20031;-60
2021/11/19 04:42:04;;;;;;;80.22;19.20;;;6.90;92.20;;;;;;5044306;28;20020;-60
2021/11/19 04:44:29;;;;;;;61.60;16.85;;;6.90;92.20;;;;;;5044372;28;20448;-60
2021/11/19 04:46:55;;;;;;;43.42;15.70;;;7.00;92.20;;;;;;5009467;28;20613;-60
2021/11/19 04:49:20;;;;;;;45.70;16.15;;;7.00;92.20;;;;;;5029682;28;20099;-60
2021/11/19 04:51:46;;;;;;;41.50;17.08;;;7.00;92.20;;;;;;5045196;28;20028;-60
2021/11/19 04:54:12;;;;;;;41.08;15.23;;;6.90;92.30;;;;;;5028260;28;20103;-61
2021/11/19 04:56:42;;;;;;;43.63;15.30;;;6.90;92.30;;;;;;5043558;28;20120;-60
2021/11/19 04:59:09;;;;;;;38.65;15.95;;;6.90;92.30;;;;;;5029897;28;20490;-60
2021/11/19 05:01:36;;;;;;;44.97;16.23;;;6.90;92.30;;;;;;5046043;28;20638;-60
2021/11/19 05:04:03;;;;;;;31.35;15.18;;;6.90;92.30;;;;;;5041448;28;20049;-60
2021/11/19 05:06:28;;;;;;;26.77;14.27;;;6.90;92.30;;;;;;5042801;28;20443;-60
2021/11/19 05:08:54;;;;;;;28.40;15.10;;;6.90;92.30;;;;;;5023765;28;20112;-60
2021/11/19 05:11:23;;;;;;;42.72;15.90;;;6.90;92.30;;;;;;5027012;28;20033;-60
2021/11/19 05:13:50;;;;;;;30.13;14.45;;;6.90;92.40;;;;;;5010119;28;20037;-60
2021/11/19 05:16:16;;;;;;;26.40;14.05;;;6.90;92.40;;;;;;5025981;28;20079;-60
2021/11/19 05:18:42;;;;;;;25.50;14.32;;;6.90;92.40;;;;;;5024464;28;20024;-61
2021/11/19 05:21:08;;;;;;;29.40;15.52;;;6.90;92.40;;;;;;5041100;28;20021;-60
2021/11/19 05:23:34;;;;;;;35.47;15.80;;;6.90;92.40;;;;;;5042078;28;20052;-60
2021/11/19 05:25:59;;;;;;;29.08;14.55;;;6.80;92.50;;;;;;5042982;28;20035;-60
2021/11/19 05:28:25;;;;;;;34.40;14.45;;;6.80;92.50;;;;;;5024584;28;20079;-60
2021/11/19 05:30:51;;;;;;;36.80;15.00;;;6.80;92.50;;;;;;5025975;28;20029;-60
2021/11/19 05:33:18;;;;;;;25.67;14.38;;;6.80;92.50;;;;;;5039622;28;20039;-60
2021/11/19 05:35:44;;;;;;;31.40;15.63;;;6.80;92.50;;;;;;5043078;28;20056;-60
2021/11/19 05:38:09;;;;;;;33.88;15.30;;;6.80;92.60;;;;;;5043162;28;20468;-60
2021/11/19 05:40:35;;;;;;;25.60;14.85;;;6.80;92.60;;;;;;5026564;28;20052;-61
2021/11/19 05:43:01;;;;;;;30.65;14.48;;;6.80;92.60;;;;;;5024155;28;20028;-60
2021/11/19 05:45:27;;;;;;;27.33;14.43;;;6.80;92.70;;;;;;5020626;28;20052;-60
2021/11/19 05:47:53;;;;;;;29.80;15.27;;;6.80;92.70;;;;;;5033095;28;20022;-60
2021/11/19 05:50:20;;;;;;;25.15;15.73;;;6.80;92.60;;;;;;5007557;28;20028;-60
2021/11/19 05:52:46;;;;;;;28.27;16.42;;;6.80;92.60;;;;;;5057748;28;20040;-60
2021/11/19 05:55:14;;;;;;;29.80;15.27;;;6.70;92.60;;;;;;5022964;28;20033;-60
2021/11/19 05:57:40;;;;;;;34.85;15.82;;;6.80;92.60;;;;;;5023066;28;20075;-60
2021/11/19 06:00:09;;;;;;;30.80;16.98;;;6.80;92.70;;;;;;5021503;28;20057;-61
2021/11/19 06:02:34;;;;;;;31.48;17.60;;;6.80;92.70;;;;;;5025379;28;20047;-61
2021/11/19 06:05:00;;;;;;;31.85;15.60;;;6.80;92.70;;;;;;5061832;28;20060;-60
2021/11/19 06:07:25;;;;;;;35.03;16.45;;;6.70;92.70;;;;;;5027313;28;20028;-60
2021/11/19 06:09:51;;;;;;;30.65;16.45;;;6.80;92.70;;;;;;5041587;28;20356;-60
2021/11/19 06:12:23;;;;;;;39.78;16.20;;;6.70;92.70;;;;;;5041955;28;20028;-60
2021/11/19 06:14:54;;;;;;;28.17;14.13;;;6.80;93.00;;;;;;5043428;28;20049;-60
2021/11/19 06:17:42;;;;;;;25.20;16.55;;;6.70;92.70;;;;;;5028040;28;20025;-60
2021/11/19 06:20:15;;;;;;;26.58;17.65;;;6.70;92.70;;;;;;5026718;28;20120;-60
2021/11/19 06:22:43;;;;;;;30.58;17.33;;;6.70;92.70;;;;;;5025630;28;20082;-61
2021/11/19 06:25:15;;;;;;;25.63;16.40;;;6.70;93.00;;;;;;5041561;28;20020;-60
2021/11/19 06:27:41;;;;;;;30.13;16.58;;;6.70;92.80;;;;;;5009433;28;20029;-60
2021/11/19 06:30:08;;;;;;;26.27;15.35;;;6.70;92.90;;;;;;5059227;28;20118;-60
2021/11/19 06:32:34;;;;;;;23.38;15.70;;;6.70;92.90;;;;;;5043386;28;20082;-61
2021/11/19 06:35:00;;;;;;;26.15;16.55;;;6.70;92.90;;;;;;5023638;28;20032;-60
2021/11/19 06:37:25;;;;;;;21.08;15.30;;;6.70;92.90;;;;;;5061449;28;20029;-60
2021/11/19 06:39:51;;;;;;;20.52;14.98;;;6.70;93.00;;;;;;5029397;28;20028;-60
2021/11/19 06:42:16;;;;;;;24.35;15.15;;;6.70;93.00;;;;;;5045579;28;20450;-60
2021/11/19 06:44:43;;;;;;;22.75;16.75;;;6.70;93.00;;;;;;5029298;28;20109;-60
2021/11/19 06:47:09;;;;;;;25.73;16.33;;;6.70;93.00;;;;;;5026172;28;20032;-60
2021/11/19 06:49:34;;;;;;;27.70;15.30;;;6.60;93.00;;;;;;5044465;28;20117;-60
2021/11/19 06:52:00;;;;;;;25.50;15.48;;;6.60;93.00;;;;;;5025616;28;20036;-60
2021/11/19 06:54:26;;;;;;;23.67;15.57;;;6.70;93.10;;;;;;5044929;28;20020;-60
2021/11/19 06:56:52;;;;;;;22.95;16.38;;;6.60;93.10;;;;;;5037369;28;20314;-60
2021/11/19 06:59:17;;;;;;;22.70;15.05;;;6.70;93.10;;;;;;5059806;28;20028;-60
2021/11/19 07:01:43;;;;;;;23.63;15.45;;;6.60;93.10;;;;;;5026732;28;20024;-60
2021/11/19 07:04:09;;;;;;;20.45;15.20;;;6.60;93.10;;;;;;5064338;28;20071;-61
2021/11/19 07:06:36;;;;;;;21.52;15.00;;;6.60;93.10;;;;;;5063582;28;20500;-60
2021/11/19 07:09:02;;;;;;;21.85;15.05;;;6.60;93.10;;;;;;5012511;28;20060;-60
2021/11/19 07:11:28;;;;;;;22.08;15.30;;;6.60;93.10;;;;;;5045441;28;20161;-60
2021/11/19 07:13:54;;;;;;;22.80;15.00;;;6.60;93.10;;;;;;5043882;28;20041;-60
2021/11/19 07:16:20;;;;;;;23.00;15.63;;;6.60;93.10;;;;;;5026319;28;20044;-60
2021/11/19 07:18:46;;;;;;;23.17;15.35;;;6.60;93.10;;;;;;5027318;28;20553;-60
2021/11/19 07:21:11;;;;;;;23.95;15.20;;;6.70;93.20;;;;;;5030794;28;20033;-60
2021/11/19 07:23:37;;;;;;;27.52;14.90;;;6.60;93.20;;;;;;5047291;28;20039;-60
2021/11/19 07:26:03;;;;;;;23.20;14.50;;;6.70;93.20;;;;;;5045368;28;20032;-59
2021/11/19 07:28:29;;;;;;;25.05;14.32;;;6.70;93.10;;;;;;5029245;28;20023;-60
2021/11/19 07:30:57;;;;;;;25.75;14.52;;;6.70;93.10;;;;;;5014068;28;20034;-60
2021/11/19 07:33:23;;;;;;;23.30;15.52;;;6.60;93.10;;;;;;5013957;28;20059;-60
2021/11/19 07:35:49;;;;;;;28.70;15.23;;;6.70;93.20;;;;;;5030175;28;20021;-60
2021/11/19 07:38:14;;;;;;;19.38;14.13;;;6.70;93.20;;;;;;5031723;28;20039;-60
2021/11/19 07:40:41;;;;;;;21.05;14.23;;;6.70;93.20;;;;;;5026170;28;20071;-60
2021/11/19 07:43:07;;;;;;;31.95;15.32;;;6.70;93.20;;;;;;5027664;28;20029;-60
2021/11/19 07:45:36;;;;;;;26.05;14.23;;;6.70;93.20;;;;;;5062685;28;20046;-61
2021/11/19 07:48:07;;;;;;;28.05;15.80;;;6.70;93.20;;;;;;5029358;28;20044;-60
2021/11/19 07:50:33;;;;;;;26.45;15.45;;;6.70;93.30;;;;;;5046214;28;20237;-60
2021/11/19 07:52:59;;;;;;;31.35;14.88;;;6.80;93.30;;;;;;5025367;28;20107;-60
2021/11/19 07:55:24;;;;;;;34.67;14.35;;;6.80;93.30;;;;;;5027896;28;20440;-60
2021/11/19 07:57:50;;;;;;;32.53;14.43;;;6.80;93.30;;;;;;5042545;28;20550;-60
2021/11/19 08:00:19;;;;;;;24.48;13.85;;;6.70;93.30;;;;;;5042353;28;20024;-60
2021/11/19 08:02:45;;;;;;;28.45;14.27;;;6.80;93.30;;;;;;5062522;28;20047;-62
2021/11/19 08:05:11;;;;;;;31.40;15.82;;;6.80;93.30;;;;;;5042893;28;20059;-61
2021/11/19 08:07:36;;;;;;;29.23;14.65;;;6.80;93.30;;;;;;5026874;28;20029;-61
2021/11/19 08:10:03;;;;;;;24.27;13.65;;;6.90;93.40;;;;;;5022894;28;20511;-60
2021/11/19 08:12:28;;;;;;;23.80;14.13;;;6.80;93.30;;;;;;5025939;28;20120;-61
2021/11/19 08:14:54;;;;;;;26.83;13.85;;;6.90;93.40;;;;;;5061811;28;20233;-60
2021/11/19 08:17:29;;;;;;;35.22;15.00;;;6.80;93.40;;;;;;5044168;28;20063;-62
2021/11/19 08:19:55;;;;;;;32.10;13.40;;;6.90;93.40;;;;;;5010749;28;20446;-60
2021/11/19 08:22:21;;;;;;;27.45;14.20;;;6.90;93.40;;;;;;5043368;28;20020;-61
2021/11/19 08:24:47;;;;;;;38.17;15.02;;;6.90;93.40;;;;;;5027164;28;20535;-60
2021/11/19 08:27:21;;;;;;;32.88;14.85;;;6.90;93.30;;;;;;5043620;28;20048;-61
2021/11/19 08:29:49;;;;;;;29.55;14.65;;;6.90;93.30;;;;;;5028823;28;20025;-60
2021/11/19 08:32:14;;;;;;;30.15;14.55;;;6.90;93.40;;;;;;5026850;28;20078;-60
2021/11/19 08:34:40;;;;;;;37.45;15.02;;;6.90;93.60;;;;;;5043955;28;20037;-60
2021/11/19 08:37:06;;;;;;;37.60;15.40;;;7.00;93.70;;;;;;5060483;28;20035;-60
2021/11/19 08:39:32;;;;;;;41.70;15.13;;;7.00;93.60;;;;;;5010536;28;20028;-61
2021/11/19 08:41:57;;;;;;;43.65;16.48;;;7.00;93.80;;;;;;5044622;28;20400;-60
2021/11/19 08:44:23;;;;;;;37.15;16.10;;;7.00;93.80;;;;;;5041555;28;20029;-61
2021/11/19 08:46:50;;;;;;;50.88;15.27;;;7.00;93.90;;;;;;5026419;28;20149;-60
2021/11/19 08:49:19;;;;;;;37.40;15.88;;;7.00;93.80;;;;;;5009594;28;20457;-60
2021/11/19 08:51:45;;;;;;;38.28;14.20;;;7.00;93.80;;;;;;5026012;28;20033;-60
2021/11/19 08:54:11;;;;;;;31.38;16.25;;;7.00;93.80;;;;;;5027352;28;20028;-61
2021/11/19 08:56:38;;;;;;;48.88;15.13;;;7.00;93.80;;;;;;5025606;28;20604;-60
2021/11/19 08:59:05;;;;;;;36.15;15.75;;;7.10;93.80;;;;;;5042371;28;20048;-60
2021/11/19 09:01:31;;;;;;;57.20;16.98;;;7.10;94.00;;;;;;5021881;28;20032;-60
2021/11/19 09:03:56;;;;;;;57.45;17.17;;;7.10;93.80;;;;;;5039783;28;20243;-60
2021/11/19 09:06:22;;;;;;;43.88;16.63;;;7.10;93.80;;;;;;5022860;28;20055;-60
2021/11/19 09:08:48;;;;;;;59.72;16.13;;;7.10;93.80;;;;;;5025351;28;20119;-60
2021/11/19 09:11:16;;;;;;;49.08;16.10;;;7.20;93.80;;;;;;5041869;28;20040;-60
2021/11/19 09:13:42;;;;;;;56.38;17.38;;;7.20;93.70;;;;;;5024340;28;20025;-60
2021/11/19 09:16:10;;;;;;;45.90;16.48;;;7.20;93.70;;;;;;5024715;28;20453;-60
2021/11/19 09:18:47;;;;;;;48.72;17.42;;;7.20;93.70;;;;;;5026204;28;20037;-61
2021/11/19 09:21:25;;;;;;;70.80;18.55;;;7.20;93.70;;;;;;5062612;28;20043;-60
2021/11/19 09:23:58;;;;;;;55.20;16.48;;;7.20;93.70;;;;;;5008441;28;20093;-61
2021/11/19 09:26:32;;;;;;;59.15;17.38;;;7.30;93.80;;;;;;5025864;28;20028;-60
2021/11/19 09:28:59;;;;;;;47.72;18.50;;;7.20;93.80;;;;;;5059747;28;20135;-60
2021/11/19 09:31:25;;;;;;;78.47;19.70;;;7.30;93.90;;;;;;5026117;28;20021;-61
2021/11/19 09:33:51;;;;;;;74.45;18.15;;;7.30;93.80;;;;;;5062528;28;20032;-60
2021/11/19 09:36:17;;;;;;;85.97;20.48;;;7.40;94.00;;;;;;5024122;28;20441;-60
2021/11/19 09:38:42;;;;;;;101.57;24.75;;;7.40;94.10;;;;;;5042583;28;20099;-60
2021/11/19 09:41:26;;;;;;;100.95;20.77;;;7.40;94.20;;;;;;5019752;28;20818;-61
2021/11/19 09:44:17;;;;;;;106.57;22.40;;;7.40;94.20;;;;;;5040439;28;20853;-62
2021/11/19 09:47:09;;;;;;;90.72;20.83;;;7.50;94.50;;;;;;5060319;28;20037;-60
2021/11/19 09:49:49;;;;;;;117.53;22.77;;;7.50;94.20;;;;;;5045961;28;20032;-60
2021/11/19 09:52:42;;;;;;;115.22;22.73;;;7.50;94.20;;;;;;5041482;28;20024;-60
2021/11/19 09:55:29;;;;;;;97.63;21.90;;;7.50;94.30;;;;;;5024058;28;20044;-60
2021/11/19 09:58:01;;;;;;;149.40;26.23;;;7.50;94.20;;;;;;5059043;28;20029;-60
2021/11/19 10:00:41;;;;;;;116.30;23.10;;;7.50;94.30;;;;;;5040641;28;20897;-60
2021/11/19 10:03:19;;;;;;;109.43;22.65;;;7.50;94.20;;;;;;5058110;28;20029;-61
2021/11/19 10:06:15;;;;;;;91.90;21.10;;;7.60;94.10;;;;;;5058519;28;20699;-60
2021/11/19 10:08:53;;;;;;;89.68;22.20;;;7.60;94.00;;;;;;5024104;28;20058;-60
2021/11/19 10:11:30;;;;;;;85.05;20.17;;;7.60;93.90;;;;;;5041131;28;20037;-61
2021/11/19 10:14:14;;;;;;;77.38;19.83;;;7.60;93.90;;;;;;5047703;28;20369;-60
2021/11/19 10:16:58;;;;;;;76.85;19.77;;;7.60;94.00;;;;;;5062499;28;20047;-60
2021/11/19 10:19:30;;;;;;;94.63;20.48;;;7.60;94.00;;;;;;5063773;28;20036;-60
2021/11/19 10:22:14;;;;;;;61.60;19.98;;;7.70;94.00;;;;;;5028578;28;20044;-60
2021/11/19 10:24:56;;;;;;;106.82;21.27;;;7.70;94.00;;;;;;5064284;28;20016;-61
2021/11/19 10:27:24;;;;;;;82.32;20.08;;;7.70;94.10;;;;;;5047656;28;20056;-60
2021/11/19 10:29:57;;;;;;;91.57;21.25;;;7.70;94.10;;;;;;5020872;28;20991;-60
2021/11/19 10:32:25;;;;;;;106.00;23.52;;;7.80;94.10;;;;;;5023211;28;20543;-62
2021/11/19 10:35:12;;;;;;;76.10;19.33;;;7.80;94.20;;;;;;5027292;28;20044;-60
2021/11/19 10:37:55;;;;;;;93.40;21.05;;;7.80;94.30;;;;;;5045532;28;20020;-60
2021/11/19 10:40:34;;;;;;;89.85;21.38;;;7.80;94.20;;;;;;5046132;28;20975;-61
2021/11/19 10:43:03;;;;;;;96.30;22.35;;;7.80;94.20;;;;;;5060160;28;20051;-60
2021/11/19 10:45:52;;;;;;;72.40;19.50;;;7.90;94.20;;;;;;5060791;28;20125;-60
2021/11/19 10:49:19;;;;;;;107.35;23.25;;;7.90;94.20;;;;;;5037916;28;20510;-61
2021/11/19 10:52:02;;;;;;;116.57;21.42;;;7.90;94.30;;;;;;5025539;28;20056;-61
2021/11/19 10:54:28;;;;;;;100.00;22.08;;;7.90;94.50;;;;;;5058147;28;20041;-60
2021/11/19 10:57:16;;;;;;;153.55;27.48;;;8.00;94.60;;;;;;5062214;28;20160;-60
2021/11/19 10:59:44;;;;;;;142.98;26.40;;;8.00;94.60;;;;;;5030399;28;20055;-60
2021/11/19 11:02:13;;;;;;;126.20;24.08;;;8.10;94.60;;;;;;5043605;28;20056;-60
2021/11/19 11:04:49;;;;;;;97.18;21.55;;;8.10;94.60;;;;;;5059717;28;20056;-61
2021/11/19 11:07:23;;;;;;;222.20;32.42;;;8.10;94.60;;;;;;5062711;28;20239;-60
2021/11/19 11:09:53;;;;;;;145.82;25.77;;;8.10;94.70;;;;;;5041109;28;20021;-59
2021/11/19 11:12:31;;;;;;;169.07;28.98;;;8.10;94.60;;;;;;5044273;28;20064;-61
2021/11/19 11:15:19;;;;;;;139.05;27.10;;;8.20;94.80;;;;;;5060675;28;20040;-61
2021/11/19 11:18:09;;;;;;;189.77;31.50;;;8.20;94.80;;;;;;5057367;28;20067;-61
2021/11/19 11:20:40;;;;;;;166.68;26.73;;;8.20;94.80;;;;;;5058201;28;20485;-61
2021/11/19 11:23:34;;;;;;;145.15;25.30;;;8.30;94.80;;;;;;5058511;28;20700;-61
2021/11/19 11:26:13;;;;;;;141.00;26.33;;;8.10;94.70;;;;;;5042597;28;20098;-60
2021/11/19 11:28:54;;;;;;;139.70;25.63;;;8.60;94.90;;;;;;5058598;28;20356;-61
2021/11/19 11:31:35;;;;;;;178.32;29.35;;;8.40;94.90;;;;;;5040277;28;20063;-61
2021/11/19 11:34:16;;;;;;;155.55;26.67;;;8.40;95.00;;;;;;5057111;28;20563;-61
2021/11/19 11:36:46;;;;;;;295.38;36.97;;;8.40;95.10;;;;;;5059399;28;20484;-61
2021/11/19 11:39:22;;;;;;;186.15;28.65;;;8.50;95.20;;;;;;5024068;28;20037;-60
2021/11/19 11:42:10;;;;;;;151.98;27.13;;;8.50;95.20;;;;;;5043853;28;20091;-61
2021/11/19 11:44:39;;;;;;;202.80;29.70;;;8.60;95.10;;;;;;5041551;28;20025;-60
2021/11/19 11:47:16;;;;;;;201.05;29.92;;;8.60;95.10;;;;;;5008763;28;20526;-61
2021/11/19 11:49:45;;;;;;;165.05;29.30;;;8.60;95.10;;;;;;5026427;28;20135;-60
2021/11/19 11:52:23;;;;;;;176.07;30.25;;;8.60;95.00;;;;;;5043378;28;20028;-61
2021/11/19 11:55:12;;;;;;;159.80;28.17;;;8.70;95.00;;;;;;5050271;28;20075;-61
2021/11/19 11:57:43;;;;;;;195.32;29.88;;;8.70;95.00;;;;;;5056909;28;20063;-61
2021/11/19 12:00:41;;;;;;;204.43;30.65;;;8.70;94.90;;;;;;5052071;28;20128;-61
2021/11/19 12:03:41;;;;;;;263.65;36.80;;;8.70;94.90;;;;;;5057939;28;20087;-61
2021/11/19 12:06:46;;;;;;;226.00;33.65;;;8.80;95.00;;;;;;5025873;28;20090;-61
2021/11/19 12:09:18;;;;;;;183.02;30.63;;;8.80;94.90;;;;;;5042439;28;20056;-60
2021/11/19 12:12:01;;;;;;;220.75;32.47;;;8.90;94.90;;;;;;5056351;28;20327;-61
2021/11/19 12:14:46;;;;;;;218.18;32.90;;;8.90;94.60;;;;;;5061019;28;20031;-61
2021/11/19 12:17:30;;;;;;;187.45;30.50;;;8.90;94.70;;;;;;5042835;28;20036;-60
2021/11/19 12:20:14;;;;;;;201.95;31.50;;;9.00;94.50;;;;;;5010824;28;20017;-60
2021/11/19 12:22:49;;;;;;;168.27;28.23;;;9.00;94.40;;;;;;5044863;28;20039;-60
2021/11/19 12:25:41;;;;;;;244.88;33.75;;;9.00;94.40;;;;;;5025767;28;20044;-60
2021/11/19 12:28:09;;;;;;;202.73;31.92;;;9.00;94.40;;;;;;5044052;28;20118;-61
2021/11/19 12:31:00;;;;;;;227.70;33.38;;;9.00;94.50;;;;;;5023971;28;20039;-61
2021/11/19 12:33:29;;;;;;;210.27;31.55;;;9.00;94.50;;;;;;5023924;28;20021;-61
2021/11/19 12:35:58;;;;;;;272.23;39.05;;;9.00;94.40;;;;;;5005601;28;20085;-60
2021/11/19 12:38:31;;;;;;;201.00;31.75;;;9.10;94.30;;;;;;5024127;28;20027;-61
2021/11/19 12:40:58;;;;;;;199.20;31.10;;;9.00;94.20;;;;;;5037751;28;20466;-61
2021/11/19 12:43:42;;;;;;;287.05;38.35;;;9.00;94.10;;;;;;5038588;28;20140;-61
2021/11/19 12:46:44;;;;;;;181.68;30.15;;;9.10;94.20;;;;;;5037975;28;20040;-61
2021/11/19 12:49:22;;;;;;;192.43;31.88;;;9.10;94.10;;;;;;5057604;28;20024;-61
2021/11/19 12:52:13;;;;;;;182.88;30.83;;;9.10;94.10;;;;;;5024333;28;20028;-61